Time;durP1;ratioP1;P1;durP2;ratioP2;P2;SDS_P1;SDS_P2;PMS_P1;PMS_P2;Temp;Humidity;BMP_temperature;BMP_pressure;BME280_temperature;BME280_humidity;BME280_pressure;Samples;Min_cycle;Max_cycle;Signal;HPM_P1;HPM_P2
2021/11/04 00:00:30;;;;;;;10.73;4.13;;;15.20;99.90;;;;;;5044053;28;20024;-59
2021/11/04 00:02:56;;;;;;;5.55;4.22;;;15.20;99.90;;;;;;5044161;28;20040;-59
2021/11/04 00:05:23;;;;;;;5.88;4.80;;;15.40;99.90;;;;;;5040126;28;20037;-59
2021/11/04 00:07:51;;;;;;;7.05;5.13;;;15.50;99.90;;;;;;5034446;28;20053;-59
2021/11/04 00:10:19;;;;;;;6.22;4.68;;;15.30;99.90;;;;;;5025930;28;20025;-59
2021/11/04 00:12:45;;;;;;;5.65;4.43;;;15.10;99.90;;;;;;5035733;28;20025;-59
2021/11/04 00:15:11;;;;;;;7.97;6.03;;;15.30;99.90;;;;;;5043885;28;20025;-59
2021/11/04 00:17:38;;;;;;;6.50;5.38;;;15.30;99.90;;;;;;5054584;28;20493;-58
2021/11/04 00:20:07;;;;;;;7.03;5.22;;;15.30;99.90;;;;;;5047674;28;20022;-59
2021/11/04 00:22:33;;;;;;;7.63;5.75;;;15.20;99.90;;;;;;5035704;28;20057;-58
2021/11/04 00:24:59;;;;;;;7.53;5.47;;;15.10;99.90;;;;;;5039687;28;20461;-58
2021/11/04 00:27:25;;;;;;;6.75;5.15;;;15.30;99.90;;;;;;5052031;28;20040;-58
2021/11/04 00:29:50;;;;;;;4.95;4.20;;;15.40;99.90;;;;;;5047643;28;20056;-58
2021/11/04 00:32:17;;;;;;;8.70;6.20;;;15.50;99.90;;;;;;5053814;28;20429;-59
2021/11/04 00:34:43;;;;;;;8.52;7.30;;;15.40;99.90;;;;;;5052001;28;20100;-58
2021/11/04 00:37:08;;;;;;;5.63;5.10;;;15.30;99.90;;;;;;5055269;28;20048;-59
2021/11/04 00:39:34;;;;;;;5.57;4.65;;;15.20;99.90;;;;;;5048643;28;20064;-58
2021/11/04 00:42:00;;;;;;;8.98;5.85;;;15.20;99.90;;;;;;5053734;28;20041;-59
2021/11/04 00:44:25;;;;;;;5.85;5.18;;;15.00;99.90;;;;;;5053617;28;20025;-58
2021/11/04 00:46:53;;;;;;;5.30;4.65;;;15.00;99.90;;;;;;5054142;28;20061;-59
2021/11/04 00:49:18;;;;;;;5.32;4.53;;;15.00;99.90;;;;;;5055359;28;20100;-58
2021/11/04 00:51:44;;;;;;;6.65;4.90;;;15.10;99.90;;;;;;5051653;28;20437;-58
2021/11/04 00:54:10;;;;;;;3.85;3.45;;;15.10;99.90;;;;;;5053990;28;20118;-58
2021/11/04 00:56:36;;;;;;;4.20;3.08;;;14.90;99.90;;;;;;5051184;28;20083;-57
2021/11/04 00:59:01;;;;;;;3.38;2.60;;;14.70;99.90;;;;;;5054818;28;20083;-59
2021/11/04 01:01:28;;;;;;;2.10;1.70;;;14.90;99.90;;;;;;5052566;28;20039;-58
2021/11/04 01:03:54;;;;;;;3.08;1.83;;;14.80;99.90;;;;;;5054704;28;20061;-58
2021/11/04 01:06:21;;;;;;;2.28;0.98;;;14.50;99.90;;;;;;5038284;28;20085;-58
2021/11/04 01:08:50;;;;;;;3.67;1.30;;;14.50;99.90;;;;;;5034983;28;20029;-58
2021/11/04 01:11:17;;;;;;;0.90;0.85;;;14.40;99.90;;;;;;5047553;28;20033;-58
2021/11/04 01:13:44;;;;;;;0.60;0.60;;;14.30;99.90;;;;;;5054648;28;20475;-57
2021/11/04 01:16:10;;;;;;;2.10;1.23;;;14.40;99.90;;;;;;5033585;28;20033;-58
2021/11/04 01:18:36;;;;;;;1.05;0.90;;;14.40;99.90;;;;;;5025464;28;20109;-57
2021/11/04 01:21:01;;;;;;;0.65;0.52;;;14.40;99.90;;;;;;5029006;28;20067;-55
2021/11/04 01:23:27;;;;;;;1.02;0.80;;;14.70;99.90;;;;;;5025736;28;20479;-57
2021/11/04 01:25:52;;;;;;;0.85;0.43;;;14.80;99.90;;;;;;5040028;28;20037;-58
2021/11/04 01:28:18;;;;;;;0.75;0.50;;;15.00;99.90;;;;;;5020193;28;20112;-57
2021/11/04 01:30:44;;;;;;;0.55;0.38;;;15.10;99.90;;;;;;5026341;28;20018;-57
2021/11/04 01:33:10;;;;;;;1.10;0.50;;;14.90;99.90;;;;;;5034647;28;20156;-58
2021/11/04 01:35:37;;;;;;;1.15;0.40;;;14.80;99.90;;;;;;5033228;28;20398;-57
2021/11/04 01:38:05;;;;;;;0.52;0.13;;;15.00;99.90;;;;;;5032821;28;20032;-56
2021/11/04 01:40:32;;;;;;;0.55;0.20;;;14.90;99.90;;;;;;5053139;28;20372;-57
2021/11/04 01:43:00;;;;;;;1.25;0.10;;;14.80;99.90;;;;;;5053721;28;20518;-56
2021/11/04 01:45:26;;;;;;;0.10;0.10;;;14.70;99.90;;;;;;5048205;28;20037;-57
2021/11/04 01:47:52;;;;;;;0.20;0.10;;;14.70;99.90;;;;;;5032805;28;20071;-57
2021/11/04 01:50:21;;;;;;;0.45;0.17;;;14.50;99.90;;;;;;5035698;28;20379;-57
2021/11/04 01:52:47;;;;;;;0.40;0.10;;;14.70;99.90;;;;;;5052460;28;20020;-55
2021/11/04 01:55:20;;;;;;;1.17;0.10;;;14.70;99.90;;;;;;5051653;28;20492;-57
2021/11/04 01:57:46;;;;;;;0.40;0.13;;;14.40;99.90;;;;;;5052261;28;20033;-58
2021/11/04 02:00:14;;;;;;;0.20;0.00;;;14.40;99.90;;;;;;5050664;28;20056;-57
2021/11/04 02:02:46;;;;;;;0.20;0.10;;;14.10;99.90;;;;;;5034066;28;20386;-56
2021/11/04 02:05:30;;;;;;;0.25;0.00;;;13.90;99.90;;;;;;5033336;28;20032;-56
2021/11/04 02:08:05;;;;;;;0.85;0.10;;;13.90;99.90;;;;;;5053791;28;20041;-56
2021/11/04 02:10:34;;;;;;;0.28;0.05;;;13.90;99.90;;;;;;5048624;28;20051;-57
2021/11/04 02:13:09;;;;;;;1.17;0.10;;;14.00;99.90;;;;;;5033774;28;20029;-56
2021/11/04 02:15:38;;;;;;;0.15;0.10;;;13.80;99.90;;;;;;5035735;28;20032;-56
2021/11/04 02:18:07;;;;;;;0.20;0.10;;;14.10;99.90;;;;;;5048319;28;20164;-57
2021/11/04 02:21:01;;;;;;;0.50;0.20;;;14.10;99.90;;;;;;5031548;28;20029;-57
2021/11/04 02:24:02;;;;;;;0.30;0.00;;;14.00;99.90;;;;;;5033382;28;20104;-56
2021/11/04 02:26:28;;;;;;;0.75;0.00;;;14.20;99.90;;;;;;5011714;28;20546;-57
2021/11/04 02:28:54;;;;;;;0.85;0.00;;;14.00;99.90;;;;;;5013548;28;20124;-55
2021/11/04 02:31:30;;;;;;;2.60;0.40;;;13.70;99.90;;;;;;5021048;28;20061;-57
2021/11/04 02:33:56;;;;;;;0.47;0.03;;;13.90;99.90;;;;;;5033284;28;20090;-56
2021/11/04 02:36:24;;;;;;;0.05;0.05;;;13.70;99.90;;;;;;5040808;28;20029;-57
2021/11/04 02:38:50;;;;;;;0.35;0.10;;;14.00;99.90;;;;;;5052135;28;20033;-57
2021/11/04 02:41:16;;;;;;;0.15;0.10;;;13.90;99.90;;;;;;5042999;28;20025;-55
2021/11/04 02:43:42;;;;;;;2.28;0.32;;;13.80;99.90;;;;;;5032997;28;20052;-56
2021/11/04 02:46:10;;;;;;;0.20;0.10;;;13.80;99.90;;;;;;5037814;28;20037;-57
2021/11/04 02:48:38;;;;;;;0.28;0.08;;;13.80;99.90;;;;;;5053402;28;20108;-55
2021/11/04 02:51:04;;;;;;;0.68;0.20;;;13.80;99.90;;;;;;5045113;28;20040;-57
2021/11/04 02:54:25;;;;;;;0.77;0.00;;;13.60;99.90;;;;;;5030657;28;20395;-55
2021/11/04 02:56:54;;;;;;;0.10;0.00;;;13.60;99.90;;;;;;5042376;28;20032;-56
2021/11/04 02:59:21;;;;;;;0.20;0.00;;;13.50;99.90;;;;;;5051466;28;20124;-58
2021/11/04 03:01:54;;;;;;;0.22;0.00;;;13.70;99.90;;;;;;5039578;28;20080;-56
2021/11/04 03:04:21;;;;;;;0.00;0.00;;;13.30;99.90;;;;;;5031703;28;20060;-55
2021/11/04 03:06:48;;;;;;;0.20;0.00;;;13.40;99.90;;;;;;5043404;28;20041;-56
2021/11/04 03:09:14;;;;;;;0.00;0.00;;;13.30;99.90;;;;;;5038622;28;20107;-56
2021/11/04 03:11:40;;;;;;;1.75;0.00;;;13.30;99.90;;;;;;5042409;28;20417;-56
2021/11/04 03:14:49;;;;;;;0.22;0.20;;;13.20;99.90;;;;;;5052557;28;20036;-54
2021/11/04 03:17:16;;;;;;;0.10;0.00;;;13.10;99.90;;;;;;5035734;28;20095;-57
2021/11/04 03:19:42;;;;;;;0.00;0.00;;;13.20;99.90;;;;;;5032866;28;20061;-55
2021/11/04 03:22:08;;;;;;;0.03;0.00;;;13.10;99.90;;;;;;5045129;28;20072;-55
2021/11/04 03:24:34;;;;;;;0.00;0.00;;;13.10;99.90;;;;;;5051918;28;20037;-58
2021/11/04 03:27:03;;;;;;;0.45;0.00;;;13.00;99.90;;;;;;5048970;28;20033;-55
2021/11/04 03:29:33;;;;;;;0.00;0.00;;;13.00;99.90;;;;;;5052905;28;20029;-54
2021/11/04 03:32:02;;;;;;;0.03;0.00;;;13.20;99.90;;;;;;5050664;28;20029;-55
2021/11/04 03:34:35;;;;;;;0.08;0.00;;;13.10;99.90;;;;;;5052510;28;20094;-57
2021/11/04 03:37:05;;;;;;;0.05;0.00;;;13.10;99.90;;;;;;5037102;28;20420;-53
2021/11/04 03:39:31;;;;;;;0.40;0.05;;;13.00;99.90;;;;;;5032415;28;20394;-54
2021/11/04 03:41:58;;;;;;;1.13;0.00;;;12.90;99.90;;;;;;5031442;28;20068;-55
2021/11/04 03:44:24;;;;;;;0.08;0.00;;;13.10;99.90;;;;;;5032624;28;20091;-55
2021/11/04 03:46:56;;;;;;;0.00;0.00;;;13.00;99.90;;;;;;5031537;28;20453;-57
2021/11/04 03:49:23;;;;;;;0.00;0.00;;;13.20;99.90;;;;;;5031242;28;20032;-55
2021/11/04 03:51:51;;;;;;;7.47;0.30;;;13.00;99.90;;;;;;5035558;28;20033;-57
2021/11/04 03:54:22;;;;;;;0.17;0.00;;;13.10;99.90;;;;;;5036200;28;20028;-56
2021/11/04 03:56:50;;;;;;;0.10;0.00;;;13.00;99.90;;;;;;5033834;28;20116;-57
2021/11/04 03:59:15;;;;;;;0.85;0.22;;;13.00;99.90;;;;;;5036399;28;20040;-57
2021/11/04 04:01:41;;;;;;;0.00;0.00;;;13.10;99.90;;;;;;5035142;28;20382;-56
2021/11/04 04:04:08;;;;;;;0.57;0.00;;;13.10;99.90;;;;;;5035773;28;20025;-56
2021/11/04 04:06:35;;;;;;;0.20;0.00;;;12.90;99.90;;;;;;5045367;28;20044;-56
2021/11/04 04:09:02;;;;;;;0.00;0.00;;;13.00;99.90;;;;;;5055707;28;20094;-56
2021/11/04 04:11:27;;;;;;;0.03;0.00;;;12.90;99.90;;;;;;5043112;28;20025;-59
2021/11/04 04:13:55;;;;;;;0.30;0.00;;;12.80;99.90;;;;;;5035668;28;20090;-58
2021/11/04 04:16:21;;;;;;;0.47;0.00;;;12.70;99.90;;;;;;5043104;28;20036;-58
2021/11/04 04:18:48;;;;;;;1.60;0.10;;;12.70;99.90;;;;;;5053726;28;20021;-56
2021/11/04 04:21:14;;;;;;;0.32;0.10;;;12.60;99.90;;;;;;5037044;28;20064;-58
2021/11/04 04:40:31;;;;;;;2.27;0.40;;;10.60;99.90;;;;;;5069181;28;20466;-57
2021/11/04 04:42:57;;;;;;;0.50;0.20;;;10.50;99.90;;;;;;5070224;28;20481;-59
2021/11/04 04:45:23;;;;;;;0.00;0.00;;;10.40;99.90;;;;;;5068710;28;20040;-58
2021/11/04 04:47:48;;;;;;;0.30;0.20;;;10.50;99.90;;;;;;5049619;28;20447;-59
2021/11/04 04:50:14;;;;;;;1.10;0.00;;;11.30;99.90;;;;;;5040859;28;20080;-58
2021/11/04 04:52:41;;;;;;;0.10;0.00;;;11.50;99.90;;;;;;5048914;28;20056;-59
2021/11/04 04:55:07;;;;;;;0.08;0.00;;;11.20;99.90;;;;;;5050057;28;20108;-59
2021/11/04 04:57:33;;;;;;;0.10;0.10;;;11.20;99.90;;;;;;5049088;28;20026;-57
2021/11/04 04:59:59;;;;;;;0.68;0.10;;;11.00;99.90;;;;;;5049838;28;20472;-58
2021/11/04 05:02:26;;;;;;;0.47;0.10;;;10.90;99.90;;;;;;5062776;28;20021;-59
2021/11/04 05:04:52;;;;;;;0.20;0.10;;;10.60;99.90;;;;;;5070079;28;20029;-59
2021/11/04 05:07:18;;;;;;;0.00;0.00;;;12.90;99.90;;;;;;5067799;28;20056;-58
2021/11/04 05:09:44;;;;;;;1.00;0.05;;;12.20;99.90;;;;;;5070064;28;20033;-59
2021/11/04 05:12:10;;;;;;;0.20;0.08;;;11.80;99.90;;;;;;5054014;28;20079;-58
2021/11/04 05:14:37;;;;;;;0.00;0.00;;;11.40;99.90;;;;;;5050037;28;20052;-59
2021/11/04 05:17:04;;;;;;;0.05;0.00;;;12.00;99.90;;;;;;5048813;28;20036;-58
2021/11/04 05:19:30;;;;;;;1.27;0.10;;;11.50;99.90;;;;;;5047301;28;20422;-59
2021/11/04 05:21:56;;;;;;;0.20;0.08;;;11.40;99.90;;;;;;5048389;28;20140;-58
2021/11/04 05:24:21;;;;;;;0.93;0.20;;;11.20;99.90;;;;;;5049762;28;20108;-59
2021/11/04 05:26:48;;;;;;;0.40;0.05;;;11.00;99.90;;;;;;5048733;28;20370;-59
2021/11/04 05:29:14;;;;;;;0.13;0.10;;;10.70;99.90;;;;;;5048028;28;20132;-58
2021/11/04 05:31:40;;;;;;;0.35;0.10;;;10.40;99.90;;;;;;5048549;28;20025;-59
2021/11/04 05:34:09;;;;;;;0.10;0.10;;;10.30;99.90;;;;;;5049297;28;20017;-58
2021/11/04 05:36:35;;;;;;;0.20;0.15;;;10.20;99.90;;;;;;5048218;28;20091;-59
2021/11/04 05:39:01;;;;;;;0.17;0.10;;;10.00;99.90;;;;;;5047711;28;20045;-59
2021/11/04 05:41:30;;;;;;;0.60;0.10;;;9.90;99.90;;;;;;5047420;28;20028;-59
2021/11/04 05:43:55;;;;;;;0.10;0.05;;;9.90;99.90;;;;;;5033158;28;20025;-58
2021/11/04 05:46:21;;;;;;;0.57;0.17;;;9.90;99.90;;;;;;5035798;28;20094;-58
2021/11/04 05:48:47;;;;;;;0.45;0.45;;;9.80;99.90;;;;;;5067320;28;20021;-58
2021/11/04 05:51:12;;;;;;;0.70;0.30;;;9.80;99.90;;;;;;5055649;28;20025;-58
2021/11/04 05:53:38;;;;;;;0.70;0.43;;;12.00;99.90;;;;;;5055594;28;20017;-56
2021/11/04 05:56:04;;;;;;;0.87;0.60;;;11.60;99.90;;;;;;5052620;28;20024;-58
2021/11/04 05:58:29;;;;;;;0.30;0.30;;;10.90;99.90;;;;;;5034267;28;20109;-58
2021/11/04 06:00:55;;;;;;;0.60;0.55;;;11.10;99.90;;;;;;5034968;28;20037;-58
2021/11/04 06:03:21;;;;;;;0.93;0.70;;;11.00;99.90;;;;;;5035549;28;20155;-58
2021/11/04 06:05:47;;;;;;;1.00;0.88;;;10.90;99.90;;;;;;5035679;28;20424;-58
2021/11/04 06:08:13;;;;;;;1.23;1.13;;;10.60;99.90;;;;;;5033131;28;20091;-58
2021/11/04 06:10:38;;;;;;;1.95;1.65;;;10.80;99.90;;;;;;5035575;28;20156;-59
2021/11/04 06:13:04;;;;;;;1.98;1.75;;;10.90;99.90;;;;;;5026455;28;20075;-59
2021/11/04 06:15:30;;;;;;;2.65;1.67;;;10.70;99.90;;;;;;5015986;28;20361;-59
2021/11/04 06:17:56;;;;;;;2.75;2.22;;;10.60;99.90;;;;;;5028533;28;20129;-59
2021/11/04 06:20:31;;;;;;;3.80;2.53;;;10.60;99.90;;;;;;5032709;28;20652;-58
2021/11/04 06:22:56;;;;;;;;;;;10.80;99.90;;;;;;5030043;28;20034;-59
2021/11/04 06:25:22;;;;;;;3.00;2.67;;;10.60;99.90;;;;;;5018643;28;19932;-59
2021/11/04 06:27:48;;;;;;;2.80;2.55;;;10.50;99.90;;;;;;5033651;28;20033;-60
2021/11/04 06:30:14;;;;;;;3.05;2.80;;;10.50;99.90;;;;;;5018046;28;20026;-60
2021/11/04 06:32:49;;;;;;;3.42;2.30;;;10.60;99.90;;;;;;5027928;28;20033;-60
2021/11/04 06:35:16;;;;;;;2.92;2.63;;;10.50;99.90;;;;;;5034598;28;20055;-60
2021/11/04 06:37:45;;;;;;;2.72;2.53;;;10.40;99.90;;;;;;5045574;28;20445;-59
2021/11/04 06:40:11;;;;;;;2.95;2.65;;;10.30;99.90;;;;;;5054495;28;20065;-60
2021/11/04 06:42:37;;;;;;;3.28;2.85;;;10.40;99.90;;;;;;5050802;28;20530;-60
2021/11/04 06:45:04;;;;;;;3.10;2.80;;;10.40;99.90;;;;;;5054580;28;20064;-60
2021/11/04 06:47:36;;;;;;;3.13;2.83;;;10.40;99.90;;;;;;5032652;28;20061;-60
2021/11/04 06:50:04;;;;;;;4.90;3.20;;;10.50;99.90;;;;;;5029194;28;20483;-60
2021/11/04 06:52:46;;;;;;;4.70;3.45;;;10.60;99.90;;;;;;5035343;28;20321;-60
2021/11/04 06:55:14;;;;;;;4.43;3.80;;;10.50;99.90;;;;;;5053183;28;20501;-60
2021/11/04 06:57:41;;;;;;;4.05;3.10;;;10.60;99.90;;;;;;5040997;28;20045;-60
2021/11/04 07:00:11;;;;;;;3.70;2.80;;;10.40;99.90;;;;;;5034367;28;20033;-60
2021/11/04 07:02:43;;;;;;;4.25;3.28;;;10.60;99.90;;;;;;5050663;28;20029;-60
2021/11/04 07:05:12;;;;;;;5.10;3.33;;;10.60;99.90;;;;;;5054156;28;20612;-60
2021/11/04 07:07:44;;;;;;;3.85;3.35;;;10.30;99.90;;;;;;5051142;28;20036;-60
2021/11/04 07:10:11;;;;;;;4.93;3.50;;;10.40;99.90;;;;;;5054396;28;20078;-59
2021/11/04 07:12:52;;;;;;;4.05;3.30;;;10.40;99.90;;;;;;5046949;28;20135;-60
2021/11/04 07:15:20;;;;;;;4.00;2.95;;;10.60;99.90;;;;;;5038066;28;20036;-60
2021/11/04 07:17:47;;;;;;;3.33;3.03;;;10.60;99.90;;;;;;5051605;28;20028;-60
2021/11/04 07:20:16;;;;;;;3.85;3.00;;;10.60;99.90;;;;;;5053911;28;20037;-60
2021/11/04 07:22:48;;;;;;;4.90;3.22;;;10.50;99.90;;;;;;5023012;28;20049;-60
2021/11/04 07:25:20;;;;;;;4.20;3.10;;;10.40;99.90;;;;;;5040375;28;20483;-60
2021/11/04 07:28:08;;;;;;;3.22;2.92;;;10.30;99.90;;;;;;5037780;28;20021;-59
2021/11/04 07:30:33;;;;;;;3.47;2.85;;;10.30;99.90;;;;;;5039674;28;20029;-60
2021/11/04 07:33:04;;;;;;;3.90;2.67;;;10.20;99.90;;;;;;5051996;28;20028;-60
2021/11/04 07:35:32;;;;;;;5.10;3.67;;;10.10;99.90;;;;;;5054283;28;20030;-60
2021/11/04 07:37:58;;;;;;;3.63;3.33;;;10.30;99.90;;;;;;5050979;28;20071;-60
2021/11/04 07:40:26;;;;;;;3.70;3.40;;;10.20;99.90;;;;;;5053527;28;20144;-60
2021/11/04 07:42:56;;;;;;;3.15;2.85;;;10.30;99.90;;;;;;5036381;28;20032;-60
2021/11/04 07:45:23;;;;;;;2.80;2.28;;;10.20;99.90;;;;;;5042384;28;20029;-60
2021/11/04 07:47:49;;;;;;;3.38;2.20;;;10.10;99.90;;;;;;5045921;28;20025;-59
2021/11/04 07:50:19;;;;;;;2.05;1.85;;;10.20;99.90;;;;;;5051425;28;20116;-60
2021/11/04 07:52:46;;;;;;;3.88;2.58;;;10.20;99.90;;;;;;5049235;28;20464;-60
2021/11/04 07:55:12;;;;;;;2.65;2.10;;;10.20;99.90;;;;;;5053338;28;20032;-60
2021/11/04 07:57:39;;;;;;;4.18;2.40;;;10.20;99.90;;;;;;5049952;28;20029;-59
2021/11/04 08:00:08;;;;;;;3.13;2.38;;;10.30;99.90;;;;;;5050509;28;20041;-59
2021/11/04 08:02:34;;;;;;;2.38;1.50;;;10.20;99.90;;;;;;5048367;28;20024;-59
2021/11/04 08:05:01;;;;;;;2.20;1.90;;;10.30;99.90;;;;;;5053393;28;20029;-59
2021/11/04 08:07:32;;;;;;;2.10;1.50;;;10.20;99.90;;;;;;5048505;28;20120;-59
2021/11/04 08:09:58;;;;;;;1.40;1.30;;;10.30;99.90;;;;;;5053180;28;20021;-59
2021/11/04 08:12:24;;;;;;;2.17;1.77;;;10.30;99.90;;;;;;5044352;28;20437;-59
2021/11/04 08:14:49;;;;;;;2.03;1.35;;;10.30;99.90;;;;;;5041780;28;20066;-59
2021/11/04 08:17:15;;;;;;;1.95;1.60;;;10.40;99.90;;;;;;5037056;28;20078;-60
2021/11/04 08:19:49;;;;;;;0.95;0.85;;;10.20;99.90;;;;;;5052939;28;20036;-59
2021/11/04 08:22:16;;;;;;;3.25;1.20;;;10.30;99.90;;;;;;5050910;28;20112;-60
2021/11/04 08:24:42;;;;;;;1.00;0.93;;;10.40;99.90;;;;;;5053018;28;20116;-60
2021/11/04 08:27:08;;;;;;;1.75;1.27;;;10.40;99.90;;;;;;5049287;28;20491;-59
2021/11/04 08:29:33;;;;;;;1.75;0.88;;;13.40;99.90;;;;;;5052922;28;20033;-59
2021/11/04 08:31:59;;;;;;;2.25;1.08;;;11.10;99.90;;;;;;5050527;28;20032;-59
2021/11/04 08:34:24;;;;;;;1.17;0.95;;;10.80;99.90;;;;;;5048749;28;20098;-59
2021/11/04 08:36:50;;;;;;;3.25;1.17;;;10.80;99.90;;;;;;5037737;28;20033;-59
2021/11/04 08:39:16;;;;;;;2.67;1.20;;;11.00;99.90;;;;;;5052404;28;20136;-59
2021/11/04 08:41:41;;;;;;;1.60;0.68;;;10.70;99.90;;;;;;5043898;28;20025;-60
2021/11/04 08:44:08;;;;;;;1.77;1.10;;;10.70;99.90;;;;;;5046009;28;20033;-60
2021/11/04 08:46:33;;;;;;;2.65;2.00;;;10.60;99.90;;;;;;5044946;28;20056;-59
2021/11/04 08:48:59;;;;;;;2.70;2.30;;;10.50;99.90;;;;;;5050824;28;20130;-59
2021/11/04 08:51:24;;;;;;;3.72;2.67;;;11.20;99.90;;;;;;5052663;28;20025;-59
2021/11/04 08:53:50;;;;;;;3.42;2.60;;;10.50;99.90;;;;;;5043220;28;20041;-60
2021/11/04 08:56:16;;;;;;;3.22;2.80;;;11.80;99.90;;;;;;5052148;28;20052;-60
2021/11/04 08:58:41;;;;;;;3.60;2.58;;;11.50;99.90;;;;;;5052794;28;20033;-60
2021/11/04 09:01:08;;;;;;;3.65;3.13;;;11.10;99.90;;;;;;5032492;28;20068;-60
2021/11/04 09:03:34;;;;;;;4.35;2.95;;;10.80;99.90;;;;;;5032771;28;20022;-59
2021/11/04 09:06:02;;;;;;;5.75;3.25;;;11.00;99.90;;;;;;5037840;28;20473;-60
2021/11/04 09:08:28;;;;;;;5.13;3.50;;;10.80;99.90;;;;;;5049412;28;20036;-60
2021/11/04 09:10:54;;;;;;;4.95;4.03;;;12.70;99.90;;;;;;5045987;28;20087;-59
2021/11/04 09:13:20;;;;;;;4.82;3.97;;;12.50;99.90;;;;;;5051121;28;20029;-59
2021/11/04 09:15:50;;;;;;;5.35;4.18;;;12.20;99.90;;;;;;5036142;28;20471;-59
2021/11/04 09:18:18;;;;;;;5.97;4.07;;;12.10;99.90;;;;;;5032165;28;20116;-59
2021/11/04 09:20:44;;;;;;;5.65;4.43;;;11.80;99.90;;;;;;5031410;28;20079;-59
2021/11/04 09:23:09;;;;;;;4.97;4.32;;;12.00;99.90;;;;;;5030989;28;20506;-59
2021/11/04 09:25:36;;;;;;;5.82;4.53;;;12.00;99.90;;;;;;5030674;28;20034;-60
2021/11/04 09:28:02;;;;;;;7.22;4.97;;;12.10;99.90;;;;;;5051028;28;20021;-60
2021/11/04 09:30:28;;;;;;;7.03;5.00;;;12.20;99.90;;;;;;5054056;28;20031;-60
2021/11/04 09:32:55;;;;;;;7.40;5.85;;;12.10;99.90;;;;;;5032895;28;20026;-60
2021/11/04 09:35:21;;;;;;;6.68;5.97;;;12.00;99.90;;;;;;5030508;28;20052;-61
2021/11/04 09:37:47;;;;;;;10.60;6.65;;;12.10;99.90;;;;;;5054462;28;20611;-60
2021/11/04 09:40:15;;;;;;;11.02;6.47;;;12.30;99.90;;;;;;5054051;28;20075;-61
2021/11/04 09:42:41;;;;;;;8.63;7.47;;;12.30;99.90;;;;;;5071158;28;20045;-61
2021/11/04 09:45:07;;;;;;;9.43;7.93;;;12.30;99.90;;;;;;5053768;28;20075;-60
2021/11/04 09:47:36;;;;;;;9.15;7.50;;;12.30;99.90;;;;;;5053392;28;20033;-60
2021/11/04 09:50:08;;;;;;;14.43;10.48;;;12.40;99.90;;;;;;5055487;28;20493;-59
2021/11/04 09:52:36;;;;;;;13.57;11.48;;;12.60;99.90;;;;;;5050822;28;20025;-60
2021/11/04 09:55:18;;;;;;;13.98;11.48;;;12.30;99.90;;;;;;5055538;28;20052;-59
2021/11/04 09:57:44;;;;;;;12.63;10.68;;;12.60;99.90;;;;;;5049276;28;20502;-59
2021/11/04 10:00:10;;;;;;;13.60;10.82;;;12.60;99.90;;;;;;5035449;28;20536;-59
2021/11/04 10:02:36;;;;;;;13.23;10.98;;;12.60;99.90;;;;;;5033691;28;20021;-59
2021/11/04 10:05:06;;;;;;;14.55;11.30;;;12.80;99.90;;;;;;5039548;28;20079;-59
2021/11/04 10:07:49;;;;;;;14.90;12.02;;;12.70;99.90;;;;;;5031769;28;20521;-60
2021/11/04 10:10:20;;;;;;;14.48;11.38;;;12.70;99.90;;;;;;5033285;28;20101;-60
2021/11/04 10:13:12;;;;;;;14.98;11.75;;;12.80;99.90;;;;;;5034929;28;20083;-61
2021/11/04 10:15:42;;;;;;;13.52;10.50;;;12.70;99.90;;;;;;5033107;28;20040;-61
2021/11/04 10:18:19;;;;;;;13.57;11.23;;;13.00;99.90;;;;;;5055126;28;20056;-61
2021/11/04 10:21:00;;;;;;;13.93;10.32;;;13.00;99.90;;;;;;5052495;28;20116;-60
2021/11/04 10:23:34;;;;;;;12.65;9.55;;;13.10;99.90;;;;;;5050106;28;20389;-60
2021/11/04 10:26:27;;;;;;;11.68;9.05;;;13.10;99.90;;;;;;5032579;28;20029;-60
2021/11/04 10:29:04;;;;;;;11.18;9.13;;;13.10;99.90;;;;;;5007181;28;20064;-60
2021/11/04 10:31:43;;;;;;;22.73;16.95;;;13.20;99.90;;;;;;5032817;28;20026;-60
2021/11/04 10:34:14;;;;;;;25.08;18.10;;;13.10;99.90;;;;;;5034887;28;20063;-61
2021/11/04 10:36:45;;;;;;;12.80;9.18;;;13.20;99.90;;;;;;5033902;28;20029;-60
2021/11/04 10:39:11;;;;;;;10.73;8.40;;;13.30;99.90;;;;;;5034641;28;20111;-61
2021/11/04 10:41:39;;;;;;;8.73;7.20;;;13.30;99.90;;;;;;5028559;28;20068;-60
2021/11/04 10:44:07;;;;;;;8.82;6.72;;;13.10;99.90;;;;;;5046894;28;20025;-60
2021/11/04 10:46:47;;;;;;;6.93;5.57;;;13.20;99.90;;;;;;5052110;28;20082;-60
2021/11/04 10:49:13;;;;;;;7.25;5.35;;;13.30;99.90;;;;;;5054579;28;20025;-60
2021/11/04 10:51:39;;;;;;;5.93;5.25;;;13.20;99.90;;;;;;5049645;28;20029;-60
2021/11/04 10:54:15;;;;;;;4.50;4.10;;;13.10;99.90;;;;;;5052212;28;20551;-60
2021/11/04 10:56:44;;;;;;;5.18;4.45;;;13.20;99.90;;;;;;5052553;28;20041;-60
2021/11/04 10:59:16;;;;;;;8.63;4.07;;;13.10;99.90;;;;;;5042846;28;20034;-60
2021/11/04 11:01:50;;;;;;;4.47;3.80;;;16.20;99.90;;;;;;5020986;28;20057;-60
2021/11/04 11:04:19;;;;;;;4.18;3.40;;;15.40;99.90;;;;;;5032888;28;20057;-60
2021/11/04 11:06:53;;;;;;;4.28;3.42;;;15.20;99.90;;;;;;5025167;28;20084;-60
2021/11/04 11:09:23;;;;;;;4.40;3.72;;;15.00;99.90;;;;;;5025366;28;20026;-60
2021/11/04 11:11:52;;;;;;;7.53;3.58;;;14.80;99.90;;;;;;5049514;28;20036;-60
2021/11/04 11:14:19;;;;;;;4.40;3.25;;;15.10;99.90;;;;;;5033269;28;20033;-59
2021/11/04 11:16:56;;;;;;;4.78;3.72;;;14.80;99.90;;;;;;5028199;28;20090;-60
2021/11/04 11:19:33;;;;;;;6.22;4.70;;;14.80;99.90;;;;;;5054065;28;20025;-60
2021/11/04 11:22:00;;;;;;;6.53;3.92;;;14.80;99.90;;;;;;5038437;28;20068;-61
2021/11/04 11:24:37;;;;;;;6.50;5.00;;;14.60;99.90;;;;;;5049318;28;20470;-61
2021/11/04 11:27:14;;;;;;;5.90;4.82;;;14.70;99.90;;;;;;5049108;28;20059;-60
2021/11/04 11:29:42;;;;;;;7.40;5.35;;;14.70;99.90;;;;;;5053720;28;20364;-60
2021/11/04 11:32:19;;;;;;;5.65;4.32;;;14.50;99.90;;;;;;5051790;28;20036;-61
2021/11/04 11:34:46;;;;;;;5.30;4.28;;;14.40;99.90;;;;;;5053529;28;20036;-60
2021/11/04 11:37:23;;;;;;;4.03;3.40;;;14.50;99.90;;;;;;5045524;28;20412;-60
2021/11/04 11:39:52;;;;;;;4.38;3.45;;;14.60;99.90;;;;;;5053461;28;20076;-60
2021/11/04 11:42:24;;;;;;;3.95;3.42;;;14.60;99.90;;;;;;5049861;28;20060;-60
2021/11/04 11:44:52;;;;;;;7.32;2.80;;;14.70;99.90;;;;;;5053763;28;20021;-60
2021/11/04 11:47:29;;;;;;;4.15;3.17;;;14.70;99.90;;;;;;5038186;28;20163;-59
2021/11/04 11:50:31;;;;;;;4.13;2.75;;;14.80;99.90;;;;;;5052836;28;20028;-59
2021/11/04 11:53:02;;;;;;;4.15;3.30;;;14.80;99.90;;;;;;5051140;28;20056;-57
2021/11/04 11:55:43;;;;;;;2.80;2.40;;;14.60;99.90;;;;;;5047179;28;20479;-57
2021/11/04 11:58:30;;;;;;;2.78;2.53;;;14.60;99.90;;;;;;5052320;28;20029;-59
2021/11/04 12:01:00;;;;;;;2.63;2.42;;;14.70;99.90;;;;;;5046980;28;20525;-58
2021/11/04 12:03:35;;;;;;;4.93;3.70;;;14.60;99.90;;;;;;5033459;28;20099;-59
2021/11/04 12:06:13;;;;;;;6.75;3.28;;;14.50;99.90;;;;;;5032211;28;20025;-57
2021/11/04 12:09:01;;;;;;;3.10;2.80;;;14.50;99.90;;;;;;5033545;28;20037;-58
2021/11/04 12:11:36;;;;;;;4.55;2.83;;;14.60;99.90;;;;;;5037095;28;20033;-58
2021/11/04 12:14:24;;;;;;;3.75;2.88;;;14.60;99.90;;;;;;5051570;28;20033;-58
2021/11/04 12:17:03;;;;;;;3.47;3.15;;;14.50;99.90;;;;;;5045531;28;20028;-58
2021/11/04 12:19:42;;;;;;;4.95;3.15;;;14.40;99.90;;;;;;5051620;28;20120;-58
2021/11/04 12:22:23;;;;;;;3.83;3.42;;;14.70;96.30;;;;;;5037531;28;20098;-58
2021/11/04 12:25:00;;;;;;;4.20;3.38;;;14.50;99.70;;;;;;5052963;28;20378;-58
2021/11/04 12:27:41;;;;;;;4.50;3.22;;;14.70;99.90;;;;;;5049536;28;20024;-57
2021/11/04 12:30:23;;;;;;;3.13;2.45;;;14.80;99.90;;;;;;5051334;28;20017;-57
2021/11/04 12:33:10;;;;;;;3.55;2.70;;;14.60;97.30;;;;;;5049951;28;20060;-59
2021/11/04 12:35:46;;;;;;;4.40;2.75;;;14.80;99.40;;;;;;5048503;28;20497;-59
2021/11/04 12:38:39;;;;;;;3.60;3.00;;;14.90;98.20;;;;;;5032942;28;20139;-59
2021/11/04 12:41:09;;;;;;;4.55;3.47;;;14.90;98.50;;;;;;5031850;28;20033;-59
2021/11/04 12:43:36;;;;;;;4.30;2.97;;;14.80;99.90;;;;;;5051158;28;20060;-59
2021/11/04 12:46:58;;;;;;;3.90;3.50;;;14.70;95.90;;;;;;5050843;28;20017;-58
2021/11/04 12:49:31;;;;;;;8.48;7.15;;;14.70;94.80;;;;;;5050435;28;20025;-59
2021/11/04 12:51:59;;;;;;;5.07;4.05;;;14.50;93.50;;;;;;5041461;28;20483;-58
2021/11/04 12:54:37;;;;;;;3.70;3.13;;;14.50;99.30;;;;;;5052886;28;20033;-59
2021/11/04 12:57:04;;;;;;;6.15;4.80;;;14.70;91.60;;;;;;5036534;28;20029;-58
2021/11/04 12:59:47;;;;;;;3.40;2.90;;;14.50;98.70;;;;;;5032650;28;20148;-59
2021/11/04 13:02:18;;;;;;;5.57;3.97;;;14.50;94.60;;;;;;5035529;28;20033;-59
2021/11/04 13:04:50;;;;;;;5.13;4.63;;;14.50;99.70;;;;;;5035567;28;20471;-57
2021/11/04 13:07:19;;;;;;;6.00;4.20;;;14.50;95.40;;;;;;5041002;28;20379;-59
2021/11/04 13:09:47;;;;;;;5.00;4.07;;;14.60;91.30;;;;;;5056530;28;20059;-59
2021/11/04 13:12:18;;;;;;;5.00;4.00;;;14.70;92.70;;;;;;5052162;28;20051;-58
2021/11/04 13:14:55;;;;;;;5.88;4.32;;;14.70;92.50;;;;;;5055112;28;20029;-59